createdAt,value
2023-05-10T00:01:17.306Z,3.92
2023-05-10T00:04:04.878Z,3.80
2023-05-10T00:06:52.193Z,3.90
2023-05-10T00:09:39.539Z,3.65
2023-05-10T00:12:26.978Z,4.25
2023-05-10T00:15:15.781Z,3.80
2023-05-10T00:18:03.456Z,4.05
2023-05-10T00:20:50.751Z,3.70
2023-05-10T00:23:38.585Z,3.80
2023-05-10T00:26:26.129Z,4.25
2023-05-10T00:29:16.187Z,3.60
2023-05-10T00:32:04.990Z,4.38
2023-05-10T00:34:52.917Z,4.05
2023-05-10T00:37:40.497Z,4.13
2023-05-10T00:40:28.238Z,3.78
2023-05-10T00:43:19.922Z,3.65
2023-05-10T00:46:09.192Z,4.07
2023-05-10T00:48:58.495Z,3.72
2023-05-10T00:51:46.548Z,4.10
2023-05-10T00:54:34.452Z,3.80
2023-05-10T00:57:22.282Z,3.97
2023-05-10T01:00:10.737Z,3.92
2023-05-10T01:02:58.336Z,3.63
2023-05-10T01:05:47.021Z,4.65
2023-05-10T01:08:34.739Z,3.72
2023-05-10T01:11:22.964Z,5.00
2023-05-10T01:14:10.808Z,4.63
2023-05-10T01:16:58.653Z,4.45
2023-05-10T01:19:46.322Z,4.18
2023-05-10T01:22:48.471Z,4.53
2023-05-10T01:25:46.558Z,4.25
2023-05-10T01:28:44.663Z,4.78
2023-05-10T01:31:42.159Z,4.70
2023-05-10T01:34:37.257Z,4.25
2023-05-10T01:37:27.996Z,4.78
2023-05-10T01:40:20.733Z,4.47
2023-05-10T01:43:11.586Z,4.57
2023-05-10T01:46:05.493Z,4.32
2023-05-10T01:48:54.648Z,4.22
2023-05-10T01:51:44.915Z,4.40
2023-05-10T01:54:32.994Z,4.90
2023-05-10T01:57:23.058Z,4.25
2023-05-10T02:00:11.601Z,4.60
2023-05-10T02:03:02.926Z,4.68
2023-05-10T02:05:51.120Z,4.10
2023-05-10T02:08:41.132Z,4.27
2023-05-10T02:11:30.145Z,4.55
2023-05-10T02:14:18.370Z,4.05
2023-05-10T02:17:07.000Z,4.55
2023-05-10T02:19:54.856Z,4.67
2023-05-10T02:22:43.021Z,4.32
2023-05-10T02:25:32.698Z,4.28
2023-05-10T02:28:20.979Z,4.63
2023-05-10T02:31:10.744Z,4.67
2023-05-10T02:34:00.945Z,4.20
2023-05-10T02:36:48.477Z,4.15
2023-05-10T02:39:35.876Z,4.20
2023-05-10T02:42:27.947Z,4.03
2023-05-10T02:45:18.454Z,4.18
2023-05-10T02:48:06.632Z,4.95
2023-05-10T02:50:55.991Z,4.68
2023-05-10T02:53:46.494Z,4.93
2023-05-10T02:56:36.007Z,4.47
2023-05-10T02:59:24.976Z,4.83
2023-05-10T03:02:12.887Z,4.63
2023-05-10T03:05:00.737Z,4.60
2023-05-10T03:07:48.806Z,4.38
2023-05-10T03:10:38.612Z,4.28
2023-05-10T03:13:32.025Z,4.03
2023-05-10T03:16:25.058Z,3.70
2023-05-10T03:19:14.928Z,4.33
2023-05-10T03:22:06.566Z,3.90
2023-05-10T03:24:58.532Z,3.97
2023-05-10T03:27:48.871Z,4.13
2023-05-10T03:30:37.536Z,4.35
2023-05-10T03:33:26.291Z,4.23
2023-05-10T03:36:14.805Z,4.07
2023-05-10T03:39:02.476Z,4.00
2023-05-10T03:41:49.998Z,3.80
2023-05-10T03:44:38.136Z,4.30
2023-05-10T03:47:25.561Z,3.93
2023-05-10T03:50:14.777Z,3.97
2023-05-10T03:53:03.131Z,4.13
2023-05-10T03:55:50.837Z,3.70
2023-05-10T03:58:38.666Z,3.60
2023-05-10T04:01:26.408Z,3.60
2023-05-10T04:04:14.189Z,3.30
2023-05-10T04:07:03.779Z,4.30
2023-05-10T04:09:52.030Z,3.63
2023-05-10T04:12:39.504Z,4.03
2023-05-10T04:15:26.912Z,4.10
2023-05-10T04:18:14.429Z,3.40
2023-05-10T04:21:01.900Z,3.53
2023-05-10T04:23:50.612Z,3.60
2023-05-10T04:26:38.064Z,3.58
2023-05-10T04:29:25.483Z,4.00
2023-05-10T04:32:12.816Z,3.67
2023-05-10T04:35:00.082Z,3.10
2023-05-10T04:37:47.447Z,3.20
2023-05-10T04:40:36.738Z,3.40
2023-05-10T04:43:24.119Z,3.50
2023-05-10T04:46:11.468Z,2.97
2023-05-10T04:48:58.787Z,3.17
2023-05-10T04:51:46.255Z,3.25
2023-05-10T04:54:33.795Z,3.70
2023-05-10T04:57:22.956Z,3.17
2023-05-10T05:00:11.262Z,3.25
2023-05-10T05:02:59.016Z,3.53
2023-05-10T05:05:46.624Z,3.45
2023-05-10T05:08:33.922Z,2.90
2023-05-10T05:11:21.970Z,2.88
2023-05-10T05:14:11.030Z,3.50
2023-05-10T05:16:58.618Z,3.25
2023-05-10T05:19:46.035Z,3.10
2023-05-10T05:22:33.399Z,2.85
2023-05-10T05:25:20.816Z,2.53
2023-05-10T05:28:08.470Z,2.60
2023-05-10T05:30:57.530Z,2.92
2023-05-10T05:33:45.517Z,2.90
2023-05-10T05:36:34.921Z,3.00
2023-05-10T05:39:23.365Z,3.00
2023-05-10T05:42:11.270Z,3.03
2023-05-10T05:44:58.900Z,3.13
2023-05-10T05:47:48.200Z,3.35
2023-05-10T05:50:35.419Z,2.80
2023-05-10T05:53:22.762Z,2.40
2023-05-10T05:56:10.671Z,2.95
2023-05-10T05:58:58.319Z,2.90
2023-05-10T06:01:45.389Z,2.88
2023-05-10T06:04:34.200Z,3.10
2023-05-10T06:07:22.494Z,2.95
2023-05-10T06:10:10.423Z,2.72
2023-05-10T06:12:58.033Z,2.72
2023-05-10T06:15:45.285Z,2.80
2023-05-10T06:18:32.700Z,2.75
2023-05-10T06:21:21.456Z,2.17
2023-05-10T06:24:09.238Z,2.65
2023-05-10T06:26:56.793Z,2.17
2023-05-10T06:29:44.159Z,2.47
2023-05-10T06:32:31.544Z,2.00
2023-05-10T06:35:19.023Z,2.25
2023-05-10T06:38:07.811Z,2.13
2023-05-10T06:40:55.336Z,2.17
2023-05-10T06:43:44.230Z,2.10
2023-05-10T06:46:31.565Z,2.10
2023-05-10T06:49:18.833Z,2.10
2023-05-10T06:52:06.313Z,1.92
2023-05-10T06:54:55.494Z,2.22
2023-05-10T06:57:43.116Z,2.08
2023-05-10T07:00:31.038Z,2.00
2023-05-10T07:03:18.481Z,1.65
2023-05-10T07:06:06.181Z,2.15
2023-05-10T07:08:53.379Z,1.88
2023-05-10T07:11:42.244Z,2.08
2023-05-10T07:14:30.088Z,2.30
2023-05-10T07:17:17.767Z,2.40
2023-05-10T07:20:05.195Z,2.17
2023-05-10T07:22:52.825Z,2.30
2023-05-10T07:25:40.145Z,1.80
2023-05-10T07:28:28.882Z,2.10
2023-05-10T07:31:16.888Z,2.08
2023-05-10T07:34:04.446Z,2.00
2023-05-10T07:36:51.815Z,2.10
2023-05-10T07:39:39.366Z,1.85
2023-05-10T07:42:27.016Z,2.13
2023-05-10T07:45:16.279Z,2.63
2023-05-10T07:48:03.968Z,1.90
2023-05-10T07:50:51.579Z,1.80
2023-05-10T07:53:39.106Z,2.10
2023-05-10T07:56:28.230Z,2.13
2023-05-10T07:59:17.982Z,2.00
2023-05-10T08:02:07.424Z,2.15
2023-05-10T08:04:54.971Z,2.20
2023-05-10T08:07:42.251Z,1.92
2023-05-10T08:10:29.748Z,1.90
2023-05-10T08:13:17.213Z,1.95
2023-05-10T08:16:04.484Z,2.10
2023-05-10T08:18:53.542Z,2.25
2023-05-10T08:21:41.538Z,2.00
2023-05-10T08:24:29.058Z,2.03
2023-05-10T08:27:16.371Z,1.92
2023-05-10T08:30:03.753Z,2.42
2023-05-10T08:32:52.383Z,1.90
2023-05-10T08:35:41.049Z,2.20
2023-05-10T08:38:28.728Z,2.05
2023-05-10T08:41:16.409Z,2.30
2023-05-10T08:44:07.185Z,2.17
2023-05-10T08:46:56.362Z,2.15
2023-05-10T08:49:44.344Z,1.92
2023-05-10T08:52:33.269Z,1.90
2023-05-10T08:55:21.133Z,2.10
2023-05-10T08:58:08.974Z,1.80
2023-05-10T09:00:56.560Z,2.25
2023-05-10T09:03:44.270Z,1.85
2023-05-10T09:06:33.085Z,2.10
2023-05-10T09:09:22.250Z,2.17
2023-05-10T09:12:12.139Z,2.10
2023-05-10T09:15:00.872Z,2.08
2023-05-10T09:17:48.877Z,2.30
2023-05-10T09:20:36.239Z,1.85
2023-05-10T09:23:24.282Z,1.90
2023-05-10T09:26:13.392Z,2.40
2023-05-10T09:29:01.423Z,2.10
2023-05-10T09:31:52.071Z,2.08
2023-05-10T09:34:41.287Z,2.10
2023-05-10T09:37:32.226Z,1.85
2023-05-10T09:40:20.841Z,2.05
2023-05-10T09:43:11.841Z,2.00
2023-05-10T09:45:59.503Z,1.95
2023-05-10T09:48:47.485Z,2.10
2023-05-10T09:51:36.739Z,2.08
2023-05-10T09:54:25.128Z,1.80
2023-05-10T09:57:21.148Z,2.00
2023-05-10T10:00:12.152Z,2.10
2023-05-10T10:03:02.896Z,2.03
2023-05-10T10:05:51.217Z,1.95
2023-05-10T10:08:38.769Z,2.00
2023-05-10T10:11:26.756Z,1.75
2023-05-10T10:14:15.394Z,2.20
2023-05-10T10:17:08.233Z,2.05
2023-05-10T10:19:57.137Z,1.90
2023-05-10T10:22:44.661Z,2.08
2023-05-10T10:25:32.465Z,1.98
2023-05-10T10:28:28.279Z,2.28
2023-05-10T10:31:20.481Z,2.40
2023-05-10T10:34:12.027Z,2.30
2023-05-10T10:37:00.185Z,2.10
2023-05-10T10:39:50.672Z,1.83
2023-05-10T10:42:47.956Z,2.20
2023-05-10T10:45:35.371Z,2.00
2023-05-10T10:48:24.116Z,2.25
2023-05-10T10:51:13.067Z,2.25
2023-05-10T10:54:11.183Z,2.00
2023-05-10T10:57:14.811Z,2.13
2023-05-10T11:00:25.456Z,1.63
2023-05-10T11:03:15.305Z,1.90
2023-05-10T11:06:03.611Z,1.95
2023-05-10T11:08:54.096Z,2.00
2023-05-10T11:11:51.826Z,2.00
2023-05-10T11:14:39.253Z,2.13
2023-05-10T11:17:27.129Z,2.10
2023-05-10T11:20:17.318Z,1.90
2023-05-10T11:23:16.482Z,2.28
2023-05-10T11:26:06.884Z,2.00
2023-05-10T11:28:56.292Z,1.90
2023-05-10T11:31:47.685Z,1.90
2023-05-10T11:34:35.350Z,1.70
2023-05-10T11:37:23.048Z,2.20
2023-05-10T11:40:10.759Z,2.22
2023-05-10T11:43:00.114Z,1.90
2023-05-10T11:45:47.960Z,2.40
2023-05-10T11:48:35.456Z,2.08
2023-05-10T11:51:24.131Z,2.00
2023-05-10T11:54:12.417Z,2.00
2023-05-10T11:57:00.157Z,2.22
2023-05-10T11:59:48.879Z,2.08
2023-05-10T12:02:36.581Z,2.17
2023-05-10T12:05:24.359Z,2.00
2023-05-10T12:08:15.125Z,1.98
2023-05-10T12:11:09.526Z,1.85
2023-05-10T12:13:57.869Z,2.10
2023-05-10T12:16:47.195Z,2.08
2023-05-10T12:19:39.968Z,2.47
2023-05-10T12:22:27.472Z,2.10
2023-05-10T12:25:14.687Z,1.90
2023-05-10T12:28:02.817Z,2.60
2023-05-10T12:30:50.303Z,2.00
2023-05-10T12:33:43.478Z,1.90
2023-05-10T12:36:30.703Z,2.38
2023-05-10T12:39:18.177Z,2.10
2023-05-10T12:42:05.810Z,2.00
2023-05-10T12:44:57.255Z,2.20
2023-05-10T12:47:44.762Z,2.33
2023-05-10T12:50:33.909Z,2.08
2023-05-10T12:53:21.409Z,2.15
2023-05-10T12:56:09.346Z,1.90
2023-05-10T12:58:56.626Z,2.05
2023-05-10T13:01:44.111Z,1.80
2023-05-10T13:04:31.858Z,2.10
2023-05-10T13:07:21.019Z,2.10
2023-05-10T13:10:09.331Z,1.80
2023-05-10T13:12:56.830Z,2.38
2023-05-10T13:15:44.300Z,2.00
2023-05-10T13:18:31.837Z,1.75
2023-05-10T13:21:19.054Z,1.70
2023-05-10T13:24:07.852Z,1.73
2023-05-10T13:26:55.107Z,1.85
2023-05-10T13:29:44.782Z,1.90
2023-05-10T13:32:32.519Z,2.13
2023-05-10T13:35:19.815Z,2.05
2023-05-10T13:38:08.874Z,1.80
2023-05-10T13:40:57.797Z,1.98
2023-05-10T13:43:45.476Z,2.00
2023-05-10T13:46:33.085Z,1.63
2023-05-10T13:49:20.920Z,1.70
2023-05-10T13:52:08.688Z,1.80
2023-05-10T13:54:56.829Z,1.67
2023-05-10T13:57:45.822Z,2.00
2023-05-10T14:00:33.443Z,1.85
2023-05-10T14:03:21.357Z,1.92
2023-05-10T14:06:09.340Z,1.90
2023-05-10T14:08:57.352Z,1.73
2023-05-10T14:11:45.946Z,1.83
2023-05-10T14:14:35.035Z,2.10
2023-05-10T14:17:23.176Z,1.65
2023-05-10T14:20:11.120Z,1.80
2023-05-10T14:22:58.374Z,1.90
2023-05-10T14:25:45.745Z,2.20
2023-05-10T14:28:33.678Z,2.10
2023-05-10T14:31:24.172Z,1.85
2023-05-10T14:34:11.786Z,2.03
2023-05-10T14:36:59.305Z,1.80
2023-05-10T14:39:46.808Z,1.77
2023-05-10T14:42:34.368Z,2.28
2023-05-10T14:45:21.696Z,2.10
2023-05-10T14:48:13.164Z,2.10
2023-05-10T14:51:00.849Z,2.03
2023-05-10T14:53:48.246Z,2.00
2023-05-10T14:56:35.587Z,2.33
2023-05-10T14:59:23.197Z,2.03
2023-05-10T15:02:11.429Z,1.77
2023-05-10T15:05:00.840Z,2.08
2023-05-10T15:07:49.028Z,1.88
2023-05-10T15:10:36.397Z,1.83
2023-05-10T15:13:23.909Z,1.90
2023-05-10T15:16:11.618Z,1.90
2023-05-10T15:18:59.268Z,2.03
2023-05-10T15:21:48.327Z,1.88
2023-05-10T15:24:36.070Z,2.15
2023-05-10T15:27:23.907Z,2.03
2023-05-10T15:30:11.704Z,1.85
2023-05-10T15:32:59.495Z,1.77
2023-05-10T15:35:47.323Z,2.30
2023-05-10T15:38:38.110Z,1.95
2023-05-10T15:41:26.061Z,2.05
2023-05-10T15:44:13.601Z,2.00
2023-05-10T15:47:01.408Z,2.10
2023-05-10T15:49:49.377Z,2.10
2023-05-10T15:52:37.095Z,2.15
2023-05-10T15:55:26.321Z,2.10
2023-05-10T15:58:13.522Z,1.92
2023-05-10T16:01:00.882Z,1.73
2023-05-10T16:03:48.357Z,2.20
2023-05-10T16:06:37.789Z,1.80
2023-05-10T16:09:25.142Z,1.80
2023-05-10T16:12:14.014Z,1.95
2023-05-10T16:15:01.771Z,1.88
2023-05-10T16:17:49.515Z,1.95
2023-05-10T16:20:37.711Z,2.63
2023-05-10T16:23:25.379Z,3.00
2023-05-10T16:26:13.423Z,3.30
2023-05-10T16:29:02.092Z,3.25
2023-05-10T16:31:49.714Z,3.65
2023-05-10T16:34:37.158Z,3.53
2023-05-10T16:37:24.837Z,3.90
2023-05-10T16:40:12.516Z,3.70
2023-05-10T16:43:00.330Z,3.58
2023-05-10T16:45:57.995Z,3.60
2023-05-10T16:48:47.058Z,3.60
2023-05-10T16:51:34.692Z,3.35
2023-05-10T16:54:22.763Z,3.55
2023-05-10T16:57:10.351Z,3.75
2023-05-10T16:59:57.790Z,3.63
2023-05-10T17:02:45.314Z,3.97
2023-05-10T17:05:34.094Z,3.85
2023-05-10T17:08:21.727Z,3.45
2023-05-10T17:11:08.988Z,4.28
2023-05-10T17:13:56.386Z,3.60
2023-05-10T17:16:43.797Z,3.83
2023-05-10T17:19:31.476Z,4.15
2023-05-10T17:22:20.259Z,2.92
2023-05-10T17:25:08.551Z,3.72
2023-05-10T17:27:56.188Z,3.25
2023-05-10T17:30:44.476Z,3.95
2023-05-10T17:33:32.164Z,4.20
2023-05-10T17:36:19.561Z,3.95
2023-05-10T17:39:08.384Z,4.00
2023-05-10T17:41:56.001Z,3.80
2023-05-10T17:44:43.321Z,4.00
2023-05-10T17:47:31.955Z,3.80
2023-05-10T17:50:20.225Z,3.80
2023-05-10T17:53:08.224Z,3.70
2023-05-10T17:55:58.867Z,3.70
2023-05-10T17:58:46.754Z,3.55
2023-05-10T18:01:34.770Z,3.50
2023-05-10T18:04:22.705Z,3.33
2023-05-10T18:07:11.076Z,3.70
2023-05-10T18:09:58.477Z,3.38
2023-05-10T18:12:47.527Z,3.85
2023-05-10T18:15:35.773Z,3.72
2023-05-10T18:18:23.991Z,3.38
2023-05-10T18:21:11.442Z,3.50
2023-05-10T18:23:58.796Z,3.80
2023-05-10T18:26:46.182Z,4.55
2023-05-10T18:29:35.068Z,4.20
2023-05-10T18:32:22.588Z,4.10
2023-05-10T18:35:10.657Z,4.18
2023-05-10T18:37:58.406Z,3.83
2023-05-10T18:40:45.825Z,3.78
2023-05-10T18:43:34.094Z,3.75
2023-05-10T18:46:23.021Z,4.05
2023-05-10T18:49:11.343Z,4.28
2023-05-10T18:51:58.690Z,4.13
2023-05-10T18:54:47.407Z,4.32
2023-05-10T18:57:40.878Z,4.55
2023-05-10T19:00:28.742Z,4.72
2023-05-10T19:03:17.892Z,4.10
2023-05-10T19:06:05.556Z,4.57
2023-05-10T19:08:53.215Z,4.15
2023-05-10T19:11:40.776Z,4.38
2023-05-10T19:14:28.365Z,4.80
2023-05-10T19:17:19.165Z,4.53
2023-05-10T19:20:10.487Z,4.45
2023-05-10T19:23:09.182Z,4.50
2023-05-10T19:25:57.201Z,4.32
2023-05-10T19:28:45.175Z,4.50
2023-05-10T19:31:33.398Z,4.30
2023-05-10T19:34:21.609Z,4.40
2023-05-10T19:37:11.163Z,4.32
2023-05-10T19:39:58.982Z,4.38
2023-05-10T19:42:46.405Z,4.53
2023-05-10T19:45:36.249Z,4.75
2023-05-10T19:48:23.670Z,4.25
2023-05-10T19:51:11.931Z,4.03
2023-05-10T19:54:01.182Z,4.43
2023-05-10T19:56:49.574Z,4.38
2023-05-10T19:59:37.093Z,5.05
2023-05-10T20:02:24.554Z,5.10
2023-05-10T20:05:12.325Z,4.80
2023-05-10T20:07:59.384Z,4.68
2023-05-10T20:10:48.204Z,5.03
2023-05-10T20:13:35.941Z,5.28
2023-05-10T20:16:25.899Z,4.75
2023-05-10T20:19:14.303Z,4.97
2023-05-10T20:22:02.556Z,4.97
2023-05-10T20:24:50.063Z,5.65
2023-05-10T20:27:39.252Z,5.10
2023-05-10T20:30:26.889Z,4.93
2023-05-10T20:33:15.589Z,5.63
2023-05-10T20:36:03.335Z,5.93
2023-05-10T20:38:50.903Z,5.35
2023-05-10T20:41:39.172Z,6.00
2023-05-10T20:44:28.158Z,5.50
2023-05-10T20:47:16.256Z,5.35
2023-05-10T20:50:03.685Z,5.70
2023-05-10T20:52:52.226Z,5.43
2023-05-10T20:55:39.515Z,5.65
2023-05-10T20:58:26.982Z,5.80
2023-05-10T21:01:15.787Z,5.90
2023-05-10T21:04:03.444Z,5.35
2023-05-10T21:06:50.823Z,5.95
2023-05-10T21:09:38.190Z,5.47
2023-05-10T21:12:25.528Z,5.78
2023-05-10T21:15:13.528Z,6.18
2023-05-10T21:18:02.635Z,6.00
2023-05-10T21:20:50.621Z,6.00
2023-05-10T21:23:38.236Z,6.28
2023-05-10T21:26:25.580Z,6.20
2023-05-10T21:29:12.994Z,6.80
2023-05-10T21:32:01.111Z,6.88
2023-05-10T21:34:49.986Z,6.32
2023-05-10T21:37:37.501Z,6.50
2023-05-10T21:40:24.852Z,6.63
2023-05-10T21:43:12.285Z,7.07
2023-05-10T21:45:59.789Z,7.10
2023-05-10T21:48:47.332Z,7.13
2023-05-10T21:51:36.269Z,7.13
2023-05-10T21:54:23.911Z,7.22
2023-05-10T21:57:11.193Z,6.60
2023-05-10T21:59:58.759Z,6.63
2023-05-10T22:02:46.794Z,6.57
2023-05-10T22:05:34.939Z,6.13
2023-05-10T22:08:23.725Z,6.65
2023-05-10T22:11:11.246Z,5.70
2023-05-10T22:13:58.664Z,6.15
2023-05-10T22:16:46.255Z,6.57
2023-05-10T22:19:33.621Z,6.05
2023-05-10T22:22:22.374Z,6.43
2023-05-10T22:25:11.714Z,6.10
2023-05-10T22:27:59.243Z,6.25
2023-05-10T22:30:48.120Z,6.60
2023-05-10T22:33:35.379Z,6.70
2023-05-10T22:36:22.969Z,5.85
2023-05-10T22:39:10.455Z,5.80
2023-05-10T22:41:59.224Z,6.63
2023-05-10T22:44:46.812Z,6.68
2023-05-10T22:47:34.522Z,6.30
2023-05-10T22:50:22.687Z,6.82
2023-05-10T22:53:10.711Z,6.65
2023-05-10T22:55:58.035Z,6.95
2023-05-10T22:58:46.846Z,6.80
2023-05-10T23:01:34.493Z,6.65
2023-05-10T23:04:21.878Z,6.78
2023-05-10T23:07:09.226Z,6.60
2023-05-10T23:09:56.771Z,7.20
2023-05-10T23:12:44.125Z,7.07
2023-05-10T23:15:35.511Z,7.03
2023-05-10T23:18:22.730Z,7.10
2023-05-10T23:21:10.116Z,7.22
2023-05-10T23:23:57.526Z,7.45
2023-05-10T23:26:46.274Z,7.65
2023-05-10T23:29:34.654Z,8.00
2023-05-10T23:32:23.898Z,7.55
2023-05-10T23:35:11.877Z,7.18
2023-05-10T23:37:59.505Z,6.88
2023-05-10T23:40:49.403Z,7.72
2023-05-10T23:43:36.696Z,7.60
2023-05-10T23:46:24.197Z,6.72
2023-05-10T23:49:13.439Z,6.93
2023-05-10T23:52:01.215Z,7.60
2023-05-10T23:54:48.814Z,7.88
2023-05-10T23:57:37.011Z,6.75
